Time;durP1;ratioP1;P1;durP2;ratioP2;P2;SDS_P1;SDS_P2;PMS_P1;PMS_P2;Temp;Humidity;BMP_temperature;BMP_pressure;BME280_temperature;BME280_humidity;BME280_pressure;Samples;Min_cycle;Max_cycle;Signal;HPM_P1;HPM_P2
2023/11/23 00:01:36;;;;;;;19.65;10.18;;;0.80;99.90;;;;;;5048005;28;20238;-73
2023/11/23 00:04:05;;;;;;;18.30;9.07;;;0.70;99.90;;;;;;5047807;28;20362;-71
2023/11/23 00:06:33;;;;;;;17.45;8.32;;;0.80;99.90;;;;;;5047700;28;20222;-71
2023/11/23 00:09:05;;;;;;;17.65;9.57;;;0.90;99.90;;;;;;5047575;28;20235;-73
2023/11/23 00:11:33;;;;;;;18.73;9.23;;;1.00;99.90;;;;;;5047715;28;20275;-71
2023/11/23 00:14:01;;;;;;;17.42;8.57;;;1.10;99.90;;;;;;5047553;28;20646;-72
2023/11/23 00:16:29;;;;;;;17.67;8.98;;;1.20;99.90;;;;;;5047870;28;20210;-74
2023/11/23 00:18:57;;;;;;;15.75;8.10;;;1.10;99.90;;;;;;5047400;28;20249;-71
2023/11/23 00:21:27;;;;;;;17.58;7.97;;;0.90;99.90;;;;;;5047406;28;20230;-72
2023/11/23 00:23:55;;;;;;;17.92;9.85;;;0.80;99.90;;;;;;5047474;28;20727;-71
2023/11/23 00:26:23;;;;;;;19.50;10.00;;;0.80;99.90;;;;;;5047833;28;20306;-71
2023/11/23 00:28:51;;;;;;;22.80;9.98;;;0.60;99.90;;;;;;5047851;28;20231;-72
2023/11/23 00:31:19;;;;;;;21.67;10.25;;;0.60;99.90;;;;;;5048762;28;20228;-69
2023/11/23 00:33:47;;;;;;;20.17;10.65;;;0.60;99.90;;;;;;5048456;28;20255;-72
2023/11/23 00:36:15;;;;;;;19.15;10.55;;;0.60;99.90;;;;;;5048613;28;20250;-71
2023/11/23 00:38:45;;;;;;;19.63;8.68;;;0.60;99.90;;;;;;5050382;28;20255;-72
2023/11/23 00:41:13;;;;;;;21.60;10.30;;;0.70;99.90;;;;;;5048399;28;20723;-73
2023/11/23 00:43:41;;;;;;;17.38;9.70;;;0.80;99.90;;;;;;5048046;28;20744;-70
2023/11/23 00:46:10;;;;;;;18.00;9.70;;;0.80;99.90;;;;;;5058217;28;20213;-71
2023/11/23 00:48:38;;;;;;;17.52;9.18;;;0.70;99.90;;;;;;5051313;28;20217;-70
2023/11/23 00:51:07;;;;;;;20.77;10.50;;;0.70;99.90;;;;;;5051355;28;20219;-71
2023/11/23 00:53:37;;;;;;;20.17;10.02;;;0.60;99.90;;;;;;5051239;28;20238;-71
2023/11/23 00:56:07;;;;;;;18.50;9.63;;;0.70;99.90;;;;;;5050820;28;20217;-71
2023/11/23 00:58:35;;;;;;;19.05;9.15;;;0.80;99.90;;;;;;5050688;28;20215;-71
2023/11/23 01:01:03;;;;;;;17.90;8.80;;;0.80;99.90;;;;;;5050793;28;20301;-72
2023/11/23 01:03:32;;;;;;;16.90;9.50;;;0.80;99.90;;;;;;5051275;28;20648;-72
2023/11/23 01:06:00;;;;;;;17.92;9.00;;;1.00;99.90;;;;;;5050414;28;20289;-71
2023/11/23 01:08:31;;;;;;;17.38;9.27;;;1.00;99.90;;;;;;5050877;28;20214;-73
2023/11/23 01:10:59;;;;;;;16.88;8.45;;;0.90;99.90;;;;;;5042966;28;20293;-72
2023/11/23 01:13:29;;;;;;;16.67;9.40;;;0.90;99.90;;;;;;5050593;28;20750;-71
2023/11/23 01:15:57;;;;;;;17.20;8.77;;;0.90;99.90;;;;;;5050257;28;20248;-73
2023/11/23 01:18:25;;;;;;;19.27;9.70;;;1.00;99.90;;;;;;5050929;28;20210;-71
2023/11/23 01:20:53;;;;;;;15.85;8.65;;;1.10;99.90;;;;;;5050764;28;20218;-71
2023/11/23 01:23:21;;;;;;;19.10;9.15;;;1.00;99.90;;;;;;5050459;28;20206;-71
2023/11/23 01:25:49;;;;;;;19.73;9.82;;;1.00;99.90;;;;;;5049943;28;20300;-72
2023/11/23 01:28:17;;;;;;;19.48;9.32;;;1.00;99.90;;;;;;5056115;28;20243;-73
2023/11/23 01:30:47;;;;;;;18.95;9.35;;;0.90;99.90;;;;;;5052257;28;20232;-73
2023/11/23 01:33:15;;;;;;;17.95;9.40;;;0.90;99.90;;;;;;5049987;28;20712;-70
2023/11/23 01:35:44;;;;;;;20.30;10.23;;;0.90;99.90;;;;;;5049701;28;20238;-74
2023/11/23 01:38:12;;;;;;;18.75;9.85;;;0.90;99.90;;;;;;5050218;28;20207;-71
2023/11/23 01:40:40;;;;;;;20.02;9.45;;;0.90;99.90;;;;;;5050077;28;20309;-72
2023/11/23 01:43:09;;;;;;;18.45;8.90;;;0.90;99.90;;;;;;5050839;28;20289;-74
2023/11/23 01:45:38;;;;;;;17.58;9.23;;;0.80;99.90;;;;;;5050007;28;20216;-75
2023/11/23 01:48:09;;;;;;;17.45;9.20;;;0.80;99.90;;;;;;5050105;28;20596;-71
2023/11/23 01:50:40;;;;;;;19.58;9.88;;;0.80;99.90;;;;;;5050080;28;20230;-71
2023/11/23 01:53:09;;;;;;;20.13;10.55;;;0.70;99.90;;;;;;5049920;28;20233;-71
2023/11/23 01:55:37;;;;;;;17.42;8.45;;;0.60;99.90;;;;;;5049037;28;20243;-70
2023/11/23 01:58:07;;;;;;;20.40;9.82;;;0.60;99.90;;;;;;5049811;28;20256;-73
2023/11/23 02:00:36;;;;;;;18.55;9.65;;;0.50;99.90;;;;;;5050803;28;20742;-73
2023/11/23 02:03:07;;;;;;;21.58;9.98;;;0.60;99.90;;;;;;5050984;28;20216;-73
2023/11/23 02:05:35;;;;;;;18.67;8.57;;;0.70;99.90;;;;;;5051134;28;20556;-74
2023/11/23 02:08:04;;;;;;;18.33;8.90;;;0.70;99.90;;;;;;5049799;28;20216;-73
2023/11/23 02:10:32;;;;;;;17.65;9.25;;;0.70;99.90;;;;;;5049797;28;20631;-72
2023/11/23 02:13:01;;;;;;;18.10;9.73;;;0.70;99.90;;;;;;5049889;28;20230;-72
2023/11/23 02:15:29;;;;;;;20.15;10.02;;;0.60;99.90;;;;;;5056926;28;20204;-70
2023/11/23 02:18:01;;;;;;;19.98;10.50;;;0.50;99.90;;;;;;5049345;28;20275;-71
2023/11/23 02:20:32;;;;;;;22.08;10.23;;;0.60;99.90;;;;;;5043292;28;20221;-69
2023/11/23 02:23:00;;;;;;;19.92;10.25;;;0.50;99.90;;;;;;5049148;28;20208;-73
2023/11/23 02:25:29;;;;;;;17.70;9.27;;;0.40;99.90;;;;;;5048624;28;20742;-74
2023/11/23 02:27:57;;;;;;;20.83;10.90;;;0.30;99.90;;;;;;5048913;28;20205;-72
2023/11/23 02:30:25;;;;;;;21.52;10.50;;;0.40;99.90;;;;;;5048863;28;20236;-72
2023/11/23 02:32:54;;;;;;;23.30;11.20;;;0.50;99.90;;;;;;5049370;28;20243;-71
2023/11/23 02:35:22;;;;;;;21.20;10.23;;;0.70;99.90;;;;;;5057572;28;20212;-73
2023/11/23 02:37:50;;;;;;;19.55;9.70;;;0.80;99.90;;;;;;5049774;28;20702;-73
2023/11/23 02:40:18;;;;;;;20.75;10.70;;;0.80;99.90;;;;;;5049314;28;20226;-71
2023/11/23 02:42:47;;;;;;;20.25;10.70;;;0.60;99.90;;;;;;5048949;28;20880;-71
2023/11/23 02:45:15;;;;;;;17.92;9.30;;;0.50;99.90;;;;;;5049145;28;20202;-71
2023/11/23 02:47:43;;;;;;;20.08;10.75;;;0.40;99.90;;;;;;5048694;28;20230;-73
2023/11/23 02:50:12;;;;;;;19.30;9.85;;;0.40;99.90;;;;;;5048805;28;20224;-74
2023/11/23 02:52:40;;;;;;;20.02;9.48;;;0.30;99.90;;;;;;5049055;28;20222;-73
2023/11/23 02:55:09;;;;;;;17.67;9.65;;;0.20;99.90;;;;;;5048707;28;20206;-70
2023/11/23 02:57:37;;;;;;;20.50;9.70;;;0.30;99.90;;;;;;5048537;28;20209;-71
2023/11/23 03:00:08;;;;;;;20.15;10.20;;;0.10;99.90;;;;;;5048638;28;20281;-72
2023/11/23 03:02:36;;;;;;;21.15;10.38;;;0.20;99.90;;;;;;5048017;28;20205;-74
2023/11/23 03:05:04;;;;;;;21.95;12.48;;;0.20;99.90;;;;;;5048503;28;20212;-75
2023/11/23 03:07:32;;;;;;;21.33;10.93;;;0.20;99.90;;;;;;5048633;28;20201;-74
2023/11/23 03:10:01;;;;;;;21.92;11.10;;;0.20;99.90;;;;;;5048418;28;20229;-72
2023/11/23 03:12:29;;;;;;;20.33;11.00;;;0.10;99.90;;;;;;5048691;28;20220;-71
2023/11/23 03:14:57;;;;;;;22.38;10.30;;;0.10;99.90;;;;;;5048413;28;20217;-72
2023/11/23 03:17:27;;;;;;;23.23;11.43;;;0.00;99.90;;;;;;5048494;28;20243;-71
2023/11/23 03:19:55;;;;;;;20.05;10.95;;;0.00;99.90;;;;;;5048428;28;20278;-75
2023/11/23 03:22:23;;;;;;;21.80;10.57;;;0.00;99.90;;;;;;5048723;28;20611;-71
2023/11/23 03:24:51;;;;;;;20.23;10.02;;;0.00;99.90;;;;;;5054223;28;20616;-72
2023/11/23 03:27:20;;;;;;;21.80;10.98;;;0.10;99.90;;;;;;5048562;28;20212;-70
2023/11/23 03:29:48;;;;;;;21.10;10.10;;;0.00;99.90;;;;;;5047980;28;20257;-71
2023/11/23 03:32:16;;;;;;;21.75;10.80;;;0.10;99.90;;;;;;5048377;28;20237;-72
2023/11/23 03:34:46;;;;;;;23.65;11.20;;;0.10;99.90;;;;;;5047965;28;20206;-70
2023/11/23 03:37:16;;;;;;;23.70;11.23;;;0.10;99.90;;;;;;5048129;28;20216;-71
2023/11/23 03:39:44;;;;;;;22.42;10.38;;;0.10;99.90;;;;;;5047839;28;20275;-70
2023/11/23 03:42:12;;;;;;;21.98;11.65;;;0.10;99.90;;;;;;5048328;28;20209;-72
2023/11/23 03:44:40;;;;;;;23.60;12.15;;;0.10;99.90;;;;;;5047868;28;20643;-69
2023/11/23 03:47:07;;;;;;;24.00;10.85;;;0.00;99.90;;;;;;5048051;28;20202;-72
2023/11/23 03:49:35;;;;;;;22.70;10.32;;;0.00;99.90;;;;;;5048129;28;20598;-75
2023/11/23 03:52:06;;;;;;;22.92;11.25;;;0.00;99.90;;;;;;5047896;28;20262;-75
2023/11/23 03:54:33;;;;;;;23.30;11.07;;;0.10;99.90;;;;;;5047808;28;20261;-75
2023/11/23 03:57:01;;;;;;;21.02;10.65;;;0.10;99.90;;;;;;5048525;28;20259;-76
2023/11/23 03:59:29;;;;;;;22.05;10.32;;;0.10;99.90;;;;;;5048003;28;20238;-74
2023/11/23 04:01:57;;;;;;;22.85;11.05;;;0.10;99.90;;;;;;5048417;28;20247;-73
2023/11/23 04:04:26;;;;;;;24.05;11.85;;;0.00;99.90;;;;;;5047612;28;20225;-74
2023/11/23 04:06:54;;;;;;;23.17;11.38;;;0.10;99.90;;;;;;5048092;28;20213;-72
2023/11/23 04:09:23;;;;;;;24.98;12.48;;;0.20;99.90;;;;;;5047961;28;20312;-74
2023/11/23 04:11:53;;;;;;;26.80;11.65;;;0.10;99.90;;;;;;5048155;28;20236;-73
2023/11/23 04:14:21;;;;;;;22.92;10.38;;;0.10;99.90;;;;;;5047795;28;20225;-71
2023/11/23 04:16:49;;;;;;;26.80;11.93;;;0.20;99.90;;;;;;5047966;28;20213;-71
2023/11/23 04:19:17;;;;;;;23.88;11.23;;;0.30;99.90;;;;;;5048923;28;20239;-71
2023/11/23 04:21:46;;;;;;;20.58;9.27;;;0.30;99.90;;;;;;5052200;28;20209;-70
2023/11/23 04:24:14;;;;;;;24.80;10.77;;;0.30;99.90;;;;;;5051294;28;20210;-74
2023/11/23 04:26:43;;;;;;;25.15;11.05;;;0.40;99.90;;;;;;5051912;28;20254;-71
2023/11/23 04:29:11;;;;;;;21.63;10.60;;;0.30;99.90;;;;;;5051513;28;20237;-69
2023/11/23 04:31:40;;;;;;;20.50;10.15;;;0.30;99.90;;;;;;5051932;28;20257;-70
2023/11/23 04:34:08;;;;;;;21.83;9.48;;;0.40;99.90;;;;;;5051315;28;20221;-69
2023/11/23 04:36:37;;;;;;;24.25;11.18;;;0.50;99.90;;;;;;5051901;28;20754;-72
2023/11/23 04:39:05;;;;;;;21.05;10.93;;;0.50;99.90;;;;;;5043535;28;20233;-69
2023/11/23 04:41:33;;;;;;;19.35;9.85;;;0.40;99.90;;;;;;5051749;28;20632;-71
2023/11/23 04:44:02;;;;;;;27.45;10.55;;;0.40;99.90;;;;;;5050945;28;20704;-70
2023/11/23 04:46:31;;;;;;;18.60;9.50;;;0.40;99.90;;;;;;5051291;28;20831;-73
2023/11/23 04:48:59;;;;;;;21.27;10.10;;;0.40;99.90;;;;;;5054028;28;20235;-72
2023/11/23 04:51:27;;;;;;;21.13;9.93;;;0.20;99.90;;;;;;5051376;28;20218;-72
2023/11/23 04:53:56;;;;;;;19.15;10.18;;;0.20;99.90;;;;;;5051127;28;20222;-71
2023/11/23 04:56:25;;;;;;;22.92;11.55;;;0.20;99.90;;;;;;5059434;28;20237;-69
2023/11/23 04:58:53;;;;;;;20.55;10.10;;;0.20;99.90;;;;;;5050689;28;20261;-70
2023/11/23 05:01:22;;;;;;;20.75;10.38;;;0.20;99.90;;;;;;5051432;28;20875;-69
2023/11/23 05:03:50;;;;;;;19.98;10.10;;;0.30;99.90;;;;;;5050978;28;20236;-70
2023/11/23 05:06:18;;;;;;;25.42;11.30;;;0.30;99.90;;;;;;5051166;28;20267;-71
2023/11/23 05:08:46;;;;;;;22.33;10.52;;;0.30;99.90;;;;;;5050468;28;20728;-69
2023/11/23 05:11:14;;;;;;;21.17;9.20;;;0.20;99.90;;;;;;5050954;28;20205;-69
2023/11/23 05:13:42;;;;;;;22.27;11.07;;;0.20;99.90;;;;;;5050407;28;20250;-70
2023/11/23 05:16:10;;;;;;;23.80;10.48;;;0.30;99.90;;;;;;5050606;28;20205;-69
2023/11/23 05:18:39;;;;;;;22.40;10.10;;;0.30;99.90;;;;;;5050608;28;20211;-69
2023/11/23 05:21:11;;;;;;;23.15;11.00;;;0.20;99.90;;;;;;5052894;28;20236;-70
2023/11/23 05:23:39;;;;;;;24.55;10.98;;;0.20;99.90;;;;;;5050695;28;20301;-72
2023/11/23 05:26:07;;;;;;;19.17;9.77;;;0.20;99.90;;;;;;5050974;28;20763;-69
2023/11/23 05:28:35;;;;;;;20.15;10.15;;;0.30;99.90;;;;;;5050743;28;20211;-70
2023/11/23 05:31:04;;;;;;;21.48;10.43;;;0.40;99.90;;;;;;5049850;28;20295;-71
2023/11/23 05:33:32;;;;;;;19.67;10.10;;;0.30;99.90;;;;;;5060069;28;20299;-73
2023/11/23 05:36:02;;;;;;;20.63;11.48;;;0.30;99.90;;;;;;5050474;28;20214;-72
2023/11/23 05:38:30;;;;;;;19.33;8.38;;;0.20;99.90;;;;;;5058283;28;20217;-70
2023/11/23 05:40:58;;;;;;;21.25;10.48;;;0.20;99.90;;;;;;5049814;28;20691;-71
2023/11/23 05:43:26;;;;;;;19.80;10.00;;;0.30;99.90;;;;;;5044794;28;20620;-72
2023/11/23 05:45:54;;;;;;;22.55;9.68;;;0.30;99.90;;;;;;5050405;28;20628;-71
2023/11/23 05:48:22;;;;;;;21.50;10.00;;;0.30;99.90;;;;;;5050025;28;20635;-73
2023/11/23 05:50:50;;;;;;;24.50;10.80;;;0.30;99.90;;;;;;5049043;28;20229;-70
2023/11/23 05:53:19;;;;;;;21.58;9.82;;;0.20;99.90;;;;;;5049646;28;20204;-72
2023/11/23 05:55:47;;;;;;;22.42;9.52;;;0.30;99.90;;;;;;5049288;28;20685;-71
2023/11/23 05:58:15;;;;;;;21.27;9.43;;;0.20;99.90;;;;;;5049440;28;20211;-72
2023/11/23 06:00:43;;;;;;;19.88;9.77;;;0.10;99.90;;;;;;5049507;28;20302;-71
2023/11/23 06:03:11;;;;;;;17.35;8.20;;;0.10;99.90;;;;;;5051054;28;20563;-72
2023/11/23 06:05:39;;;;;;;22.27;9.85;;;0.00;99.90;;;;;;5048603;28;20280;-71
2023/11/23 06:08:07;;;;;;;18.45;9.05;;;-0.10;99.90;;;;;;5048604;28;20234;-71
2023/11/23 06:10:37;;;;;;;19.02;8.40;;;-0.10;99.90;;;;;;5049844;28;20321;-71
2023/11/23 06:13:05;;;;;;;19.80;9.40;;;0.00;99.90;;;;;;5049239;28;20612;-70
2023/11/23 06:15:33;;;;;;;19.75;9.20;;;0.00;99.90;;;;;;5049201;28;20285;-73
2023/11/23 06:18:03;;;;;;;20.92;9.65;;;0.10;99.90;;;;;;5045136;28;20614;-72
2023/11/23 06:20:40;;;;;;;25.45;10.65;;;-0.20;99.90;;;;;;5041398;28;20622;-73
2023/11/23 06:23:09;;;;;;;23.08;11.50;;;-0.10;99.90;;;;;;5042903;28;20197;-73
2023/11/23 06:25:39;;;;;;;25.48;12.35;;;-0.10;99.90;;;;;;5047985;28;20232;-71
2023/11/23 06:28:07;;;;;;;22.90;11.55;;;-0.20;99.90;;;;;;5051633;28;20205;-71
2023/11/23 06:30:44;;;;;;;24.70;11.75;;;-0.20;99.90;;;;;;5051289;28;20233;-70
2023/11/23 06:33:13;;;;;;;19.92;9.18;;;-0.30;99.90;;;;;;5047409;28;20271;-72
2023/11/23 06:35:43;;;;;;;23.58;10.43;;;-0.40;99.90;;;;;;5052434;28;20605;-70
2023/11/23 06:38:12;;;;;;;25.52;12.40;;;-0.40;99.90;;;;;;5049230;28;20415;-71
2023/11/23 06:40:42;;;;;;;23.92;11.15;;;-0.40;99.90;;;;;;5049222;28;20307;-69
2023/11/23 06:43:09;;;;;;;24.70;11.10;;;-0.50;99.90;;;;;;5055148;28;20200;-70
2023/11/23 06:45:37;;;;;;;22.70;11.05;;;-0.60;99.90;;;;;;5048245;28;20193;-70
2023/11/23 06:48:06;;;;;;;25.20;11.40;;;-0.60;99.90;;;;;;5046513;28;20288;-71
2023/11/23 06:50:34;;;;;;;23.08;11.35;;;-0.60;99.90;;;;;;5049398;28;20226;-72
2023/11/23 06:53:02;;;;;;;23.05;11.23;;;-0.50;99.90;;;;;;5048785;28;20293;-71
2023/11/23 06:55:30;;;;;;;22.73;9.27;;;-0.50;99.90;;;;;;5049036;28;20232;-70
2023/11/23 06:58:00;;;;;;;25.88;10.23;;;-0.50;99.90;;;;;;5048636;28;20241;-73
2023/11/23 07:00:28;;;;;;;22.33;9.40;;;-0.30;99.90;;;;;;5049156;28;20794;-72
2023/11/23 07:02:58;;;;;;;22.70;10.32;;;-0.30;99.90;;;;;;5048840;28;20681;-71
2023/11/23 07:05:26;;;;;;;21.08;9.85;;;-0.20;99.90;;;;;;5048576;28;20284;-71
2023/11/23 07:07:55;;;;;;;20.85;8.88;;;-0.10;99.90;;;;;;5048584;28;20201;-70
2023/11/23 07:10:23;;;;;;;17.98;9.25;;;0.00;99.90;;;;;;5048812;28;20229;-72
2023/11/23 07:12:51;;;;;;;19.13;7.85;;;0.20;99.90;;;;;;5048574;28;20294;-72
2023/11/23 07:15:23;;;;;;;21.75;8.30;;;0.30;99.90;;;;;;5048548;28;20338;-70
2023/11/23 07:17:52;;;;;;;15.98;6.85;;;0.40;99.90;;;;;;5048489;28;20232;-72
2023/11/23 07:20:20;;;;;;;18.00;7.75;;;0.60;99.90;;;;;;5049113;28;20245;-70
2023/11/23 07:22:48;;;;;;;19.33;7.97;;;0.70;99.90;;;;;;5048620;28;20209;-71
2023/11/23 07:25:17;;;;;;;19.75;8.38;;;0.80;99.90;;;;;;5048589;28;20202;-71
2023/11/23 07:27:45;;;;;;;16.17;7.05;;;0.90;99.90;;;;;;5048344;28;20245;-70
2023/11/23 07:30:14;;;;;;;15.90;6.18;;;1.10;99.90;;;;;;5048593;28;20290;-71
2023/11/23 07:32:43;;;;;;;17.17;7.70;;;1.20;99.90;;;;;;5048395;28;20207;-72
2023/11/23 07:35:12;;;;;;;18.50;7.68;;;1.30;99.90;;;;;;5048815;28;20241;-72
2023/11/23 07:37:40;;;;;;;16.02;6.65;;;1.40;99.90;;;;;;5048612;28;20201;-71
2023/11/23 07:40:13;;;;;;;18.02;6.90;;;1.50;99.90;;;;;;5048744;28;20228;-73
2023/11/23 07:42:43;;;;;;;18.17;6.05;;;1.50;99.90;;;;;;5048098;28;20209;-72
2023/11/23 07:45:12;;;;;;;14.52;6.30;;;1.60;99.90;;;;;;5046523;28;20625;-74
2023/11/23 07:47:43;;;;;;;13.48;5.78;;;1.70;99.90;;;;;;5042915;28;20253;-71
2023/11/23 07:50:12;;;;;;;13.80;6.10;;;1.80;99.90;;;;;;5040460;28;20230;-71
2023/11/23 07:52:40;;;;;;;14.60;6.25;;;1.90;99.90;;;;;;5048798;28;20250;-69
2023/11/23 07:55:10;;;;;;;13.95;6.85;;;2.00;99.90;;;;;;5047300;28;20231;-71
2023/11/23 07:57:38;;;;;;;14.57;6.15;;;2.00;99.90;;;;;;5047935;28;20255;-72
2023/11/23 08:00:07;;;;;;;15.23;7.03;;;2.10;99.90;;;;;;5048221;28;20895;-71
2023/11/23 08:02:36;;;;;;;13.90;6.35;;;2.30;99.90;;;;;;5048000;28;20235;-71
2023/11/23 08:05:08;;;;;;;12.82;6.45;;;2.40;99.90;;;;;;5047413;28;20259;-71
2023/11/23 08:07:36;;;;;;;14.05;6.05;;;2.50;99.90;;;;;;5047493;28;20233;-74
2023/11/23 08:10:06;;;;;;;15.40;5.50;;;2.70;99.90;;;;;;5047878;28;20624;-72
2023/11/23 08:12:34;;;;;;;17.27;6.32;;;2.80;99.90;;;;;;5048212;28;20482;-73
2023/11/23 08:15:04;;;;;;;13.15;5.30;;;2.90;99.90;;;;;;5047868;28;20209;-71
2023/11/23 08:17:32;;;;;;;13.60;5.30;;;3.10;99.90;;;;;;5047972;28;20223;-71
2023/11/23 08:20:01;;;;;;;12.73;5.00;;;3.20;99.90;;;;;;5053226;28;20486;-68
2023/11/23 08:22:32;;;;;;;14.97;5.90;;;3.30;99.90;;;;;;5047999;28;20244;-71
2023/11/23 08:25:00;;;;;;;12.83;5.20;;;3.60;99.90;;;;;;5047480;28;20478;-69
2023/11/23 08:27:28;;;;;;;12.10;4.97;;;3.70;99.90;;;;;;5047927;28;20506;-71
2023/11/23 08:29:56;;;;;;;17.47;5.60;;;4.10;99.90;;;;;;5047917;28;20620;-71
2023/11/23 08:32:24;;;;;;;15.33;5.13;;;4.40;99.90;;;;;;5048185;28;20813;-70
2023/11/23 08:34:52;;;;;;;11.83;5.53;;;4.70;99.90;;;;;;5047781;28;20468;-69
2023/11/23 08:37:20;;;;;;;11.47;4.87;;;4.80;99.90;;;;;;5048152;28;20570;-70
2023/11/23 08:39:49;;;;;;;13.27;5.43;;;4.80;99.90;;;;;;5047888;28;20537;-71
2023/11/23 08:42:19;;;;;;;15.00;5.50;;;4.80;99.90;;;;;;5047955;28;20498;-71
2023/11/23 08:44:47;;;;;;;13.80;5.00;;;4.90;99.90;;;;;;5047578;28;20845;-72
2023/11/23 08:47:15;;;;;;;11.77;4.33;;;5.00;99.90;;;;;;5047790;28;20520;-67
2023/11/23 08:49:43;;;;;;;12.90;5.00;;;5.10;99.90;;;;;;5041855;28;20555;-69
2023/11/23 08:52:11;;;;;;;13.90;5.90;;;5.10;99.90;;;;;;5047848;28;20456;-69
2023/11/23 08:54:42;;;;;;;12.47;4.90;;;5.10;99.90;;;;;;5047463;28;20854;-68
2023/11/23 08:57:11;;;;;;;11.37;5.50;;;5.20;99.90;;;;;;5047519;28;21047;-69
2023/11/23 08:59:40;;;;;;;11.80;4.63;;;5.20;99.90;;;;;;5047245;28;20556;-72
2023/11/23 09:02:09;;;;;;;11.60;4.83;;;5.30;99.90;;;;;;5046899;28;20608;-72
2023/11/23 09:04:47;;;;;;;14.67;5.17;;;5.20;99.90;;;;;;5046929;28;20833;-73
2023/11/23 09:07:17;;;;;;;10.60;4.60;;;5.20;99.90;;;;;;5050165;28;20887;-69
2023/11/23 09:09:45;;;;;;;9.73;4.00;;;5.20;99.90;;;;;;5049964;28;20457;-69
2023/11/23 09:12:15;;;;;;;10.80;4.87;;;5.10;99.90;;;;;;5050011;28;20555;-73
2023/11/23 09:14:44;;;;;;;11.97;4.73;;;5.20;99.90;;;;;;5049893;28;21347;-69
2023/11/23 09:17:17;;;;;;;10.23;3.97;;;5.20;99.90;;;;;;5050235;28;20488;-70
2023/11/23 09:19:46;;;;;;;11.93;4.43;;;5.30;99.90;;;;;;5049251;28;20470;-70
2023/11/23 09:22:14;;;;;;;12.20;4.27;;;5.30;99.90;;;;;;5058129;28;20494;-69
2023/11/23 09:24:42;;;;;;;10.13;4.27;;;5.40;99.90;;;;;;5049570;28;20472;-71
2023/11/23 09:27:11;;;;;;;9.93;3.97;;;5.50;99.90;;;;;;5049632;28;21019;-72
2023/11/23 09:29:40;;;;;;;11.00;4.57;;;5.70;99.90;;;;;;5049794;28;20964;-70
2023/11/23 09:32:09;;;;;;;10.53;4.40;;;5.80;99.90;;;;;;5051460;28;20461;-72
2023/11/23 09:34:37;;;;;;;11.53;4.50;;;6.00;99.90;;;;;;5050455;28;20474;-70
2023/11/23 09:37:06;;;;;;;12.30;4.47;;;5.90;99.90;;;;;;5050387;28;20492;-70
2023/11/23 09:39:35;;;;;;;12.10;4.70;;;6.00;99.90;;;;;;5050121;28;20483;-69
2023/11/23 09:42:05;;;;;;;11.10;4.50;;;6.20;99.90;;;;;;5050370;28;20512;-72
2023/11/23 09:44:36;;;;;;;10.67;4.20;;;6.30;99.90;;;;;;5049678;28;20532;-68
2023/11/23 09:47:08;;;;;;;11.10;4.20;;;6.40;99.90;;;;;;5049999;28;20440;-69
2023/11/23 09:49:38;;;;;;;11.43;4.60;;;6.50;99.90;;;;;;5044777;28;20470;-72
2023/11/23 09:52:07;;;;;;;11.47;4.00;;;6.50;99.90;;;;;;5044064;28;20560;-73
2023/11/23 09:54:35;;;;;;;15.20;4.87;;;6.60;99.90;;;;;;5044567;28;20505;-68
2023/11/23 09:57:04;;;;;;;9.87;4.10;;;6.60;99.90;;;;;;5049969;28;20494;-70
2023/11/23 09:59:33;;;;;;;10.43;4.10;;;6.60;99.90;;;;;;5049803;28;20910;-71
2023/11/23 10:02:04;;;;;;;11.50;3.30;;;6.60;99.90;;;;;;5050128;28;20535;-70
2023/11/23 10:04:35;;;;;;;13.37;4.13;;;6.60;99.90;;;;;;5049354;28;20553;-69
2023/11/23 10:07:05;;;;;;;13.90;3.30;;;6.70;99.90;;;;;;5049801;28;20470;-69
2023/11/23 10:09:35;;;;;;;14.07;5.03;;;6.70;99.90;;;;;;5049528;28;20585;-70
2023/11/23 10:12:03;;;;;;;10.50;3.93;;;6.80;99.90;;;;;;5050061;28;20475;-71
2023/11/23 10:14:31;;;;;;;10.00;4.10;;;6.80;99.90;;;;;;5049546;28;20854;-69
2023/11/23 10:17:00;;;;;;;8.33;3.40;;;6.90;99.90;;;;;;5048820;28;20492;-69
2023/11/23 10:19:28;;;;;;;9.17;3.13;;;6.90;99.90;;;;;;5049680;28;20501;-69
2023/11/23 10:21:59;;;;;;;8.93;3.50;;;6.90;99.90;;;;;;5049656;28;20464;-72
2023/11/23 10:24:28;;;;;;;9.40;3.17;;;7.00;99.90;;;;;;5049403;28;20555;-68
2023/11/23 10:26:57;;;;;;;11.37;3.53;;;7.10;99.90;;;;;;5049489;28;20491;-72
2023/11/23 10:29:28;;;;;;;10.83;2.93;;;7.10;99.90;;;;;;5049128;28;20556;-68
2023/11/23 10:31:59;;;;;;;10.43;3.90;;;7.20;99.90;;;;;;5049151;28;20502;-69
2023/11/23 10:34:30;;;;;;;9.47;3.53;;;7.30;99.90;;;;;;5049568;28;20881;-70
2023/11/23 10:37:01;;;;;;;10.93;3.40;;;7.30;99.90;;;;;;5049214;28;20491;-70
2023/11/23 10:39:31;;;;;;;10.20;3.47;;;7.30;99.90;;;;;;5049274;28;20466;-69
2023/11/23 10:42:02;;;;;;;8.50;2.97;;;7.30;99.90;;;;;;5049773;28;20562;-69
2023/11/23 10:44:32;;;;;;;8.87;3.30;;;7.50;99.90;;;;;;5048781;28;20838;-71
2023/11/23 10:47:03;;;;;;;9.00;2.90;;;7.50;99.90;;;;;;5049252;28;20886;-69
2023/11/23 10:49:33;;;;;;;9.07;3.00;;;7.50;99.90;;;;;;5049194;28;20471;-72
2023/11/23 10:52:04;;;;;;;9.20;3.23;;;7.50;99.90;;;;;;5048706;28;20522;-70
2023/11/23 10:54:32;;;;;;;8.53;2.80;;;7.60;99.90;;;;;;5043707;28;20478;-72
2023/11/23 10:57:05;;;;;;;11.93;3.20;;;7.60;99.90;;;;;;5048851;28;20519;-70
2023/11/23 10:59:36;;;;;;;9.30;3.30;;;7.70;99.90;;;;;;5048762;28;20563;-72
2023/11/23 11:02:07;;;;;;;9.60;3.80;;;7.80;99.90;;;;;;5048930;28;20584;-69
2023/11/23 11:04:35;;;;;;;8.67;2.87;;;7.90;99.90;;;;;;5048650;28;21150;-68
2023/11/23 11:07:05;;;;;;;9.20;3.10;;;8.00;99.90;;;;;;5048696;28;20483;-71
2023/11/23 11:09:34;;;;;;;8.90;3.17;;;7.90;99.90;;;;;;5048743;28;21064;-70
2023/11/23 11:12:05;;;;;;;8.87;2.93;;;7.90;99.90;;;;;;5048615;28;21044;-73
2023/11/23 11:14:34;;;;;;;9.87;2.97;;;7.90;99.90;;;;;;5048426;28;20841;-70
2023/11/23 11:17:03;;;;;;;8.77;2.93;;;8.00;99.90;;;;;;5048384;28;20525;-70
2023/11/23 11:19:44;;;;;;;8.17;2.83;;;8.00;99.90;;;;;;5048218;28;20551;-69
2023/11/23 11:22:14;;;;;;;7.37;2.20;;;8.10;99.90;;;;;;5048517;28;20452;-70
2023/11/23 11:24:44;;;;;;;8.90;2.67;;;8.10;99.90;;;;;;5048041;28;20475;-69
2023/11/23 11:27:13;;;;;;;8.10;2.40;;;8.20;99.90;;;;;;5048042;28;20958;-72
2023/11/23 11:29:50;;;;;;;7.80;2.27;;;8.20;99.90;;;;;;5047069;28;20471;-70
2023/11/23 11:32:21;;;;;;;9.33;2.73;;;8.20;99.90;;;;;;5048039;28;21053;-69
2023/11/23 11:35:00;;;;;;;10.20;4.53;;;8.30;99.90;;;;;;5047927;28;20950;-69
2023/11/23 11:37:31;;;;;;;9.00;2.40;;;8.30;99.90;;;;;;5048883;28;20495;-72
2023/11/23 11:40:00;;;;;;;8.73;2.60;;;8.30;99.90;;;;;;5048746;28;20949;-69
2023/11/23 11:42:29;;;;;;;9.17;2.50;;;8.30;99.90;;;;;;5048410;28;20517;-71
2023/11/23 11:44:58;;;;;;;8.50;2.10;;;8.30;99.90;;;;;;5047831;28;20459;-70
2023/11/23 11:47:27;;;;;;;9.50;2.40;;;8.30;99.90;;;;;;5048012;28;20542;-73
2023/11/23 11:49:58;;;;;;;7.87;2.47;;;8.30;99.90;;;;;;5048442;28;20460;-69
2023/11/23 11:52:26;;;;;;;8.50;2.63;;;8.30;99.90;;;;;;5048031;28;20472;-69
2023/11/23 11:54:55;;;;;;;8.80;2.40;;;8.20;99.90;;;;;;5047657;28;20443;-67
2023/11/23 11:57:24;;;;;;;7.50;1.90;;;8.40;99.90;;;;;;5042541;28;20491;-69
2023/11/23 11:59:53;;;;;;;7.10;2.30;;;8.40;99.90;;;;;;5047899;28;20483;-68
2023/11/23 12:02:21;;;;;;;7.20;2.00;;;8.60;99.90;;;;;;5047815;28;20463;-70
2023/11/23 12:04:58;;;;;;;7.90;2.33;;;8.60;99.90;;;;;;5047551;28;20497;-67
2023/11/23 12:07:29;;;;;;;8.13;1.90;;;8.70;99.90;;;;;;5047603;28;20469;-69
2023/11/23 12:09:59;;;;;;;8.53;1.80;;;8.70;99.90;;;;;;5047980;28;20571;-69
2023/11/23 12:12:27;;;;;;;7.57;2.10;;;8.60;99.90;;;;;;5048009;28;20472;-69
2023/11/23 12:14:56;;;;;;;8.23;1.97;;;8.60;99.90;;;;;;5047822;28;20539;-68
2023/11/23 12:17:25;;;;;;;9.30;2.30;;;8.60;99.90;;;;;;5048206;28;20483;-68
2023/11/23 12:19:54;;;;;;;9.50;2.50;;;8.60;99.90;;;;;;5048139;28;20551;-70
2023/11/23 12:22:25;;;;;;;6.93;1.90;;;8.50;99.90;;;;;;5048028;28;20923;-72
2023/11/23 12:24:54;;;;;;;7.37;1.93;;;8.40;99.90;;;;;;5047831;28;20554;-68
2023/11/23 12:27:25;;;;;;;8.63;3.20;;;8.50;99.90;;;;;;5048660;28;20877;-72
2023/11/23 12:29:53;;;;;;;7.03;1.60;;;8.60;99.90;;;;;;5048684;28;20479;-70
2023/11/23 12:32:21;;;;;;;8.53;1.70;;;8.80;99.90;;;;;;5048460;28;20542;-69
2023/11/23 12:34:49;;;;;;;6.90;1.70;;;8.90;99.90;;;;;;5047783;28;20452;-72
2023/11/23 12:37:18;;;;;;;8.03;1.83;;;8.90;99.90;;;;;;5047974;28;20463;-68
2023/11/23 12:39:50;;;;;;;7.37;1.90;;;8.80;99.90;;;;;;5050911;28;21004;-67
2023/11/23 12:42:18;;;;;;;6.80;1.50;;;8.70;99.90;;;;;;5051794;28;21147;-69
2023/11/23 12:44:50;;;;;;;7.10;1.63;;;8.70;99.90;;;;;;5051217;28;20570;-70
2023/11/23 12:47:20;;;;;;;7.57;1.87;;;8.70;99.90;;;;;;5051370;28;20472;-73
2023/11/23 12:49:49;;;;;;;7.17;1.70;;;8.90;99.90;;;;;;5051286;28;20473;-72
2023/11/23 12:52:17;;;;;;;7.93;1.97;;;8.90;99.90;;;;;;5051238;28;20459;-70
2023/11/23 12:54:45;;;;;;;7.93;1.90;;;9.00;99.90;;;;;;5050924;28;20472;-71